In Rescue
 
Open Full Screen Window  High Contrast Mode
Wind Gusting 20 knots
15
May 25, 2022 8:18 PM CDT
Weather Information
Wind Direction
  030 °
Wind Speed
  15 kt (17 mph)
Wind Gust
  20 kt (23 mph)
Altimeter
29.88 in
Visibility
10 SM
Temperature
11° C
52° F
Dewpoint
08° C
46° F
Humidity
82%
1hr Rain Fall
00.00 in.
24hr Rain Fall
00.06 in.
Sky Condition
Overcast @ 2,700 ft
Broken @ 1,700 ft
Broken @ 800 ft
IFR

METAR KTKC 260118Z AUTO 03015G20KT 10SM BKN008 BKN017 OVC027 11/08 A2988 RMK AO2 T01070082

FAA Disclaimer: The data displayed is for advisory purposes only and is not to be used for flight planning or operations.